KFAY/FAY METAR and TAF weather

Enter ICAO airport designator
Station Type Date Time Source
KFAY METAR 2019/06/16 04:53 UTC NOAA

KFAY 160453Z 19007KT 10SM CLR 22/18 A3010 RMK AO2 SLP185 T02170178 402940122


Station Type Date Time Source
KFAY Decoded METAR 2019/06/16 04:53 UTC NOAA

FAYETTEVILLE REGIONAL AIRPORT , NC, United States (KFAY) 34-59N 078-53W 55M
Jun 16, 2019 - 12:53 AM EDT / 2019.06.16 0453 UTC
Wind: from the S (190 degrees) at 8 MPH (7 KT):0
Visibility: 10 mile(s):0
Sky conditions: clear
Temperature: 71.1 F (21.7 C)
Dew Point: 64.0 F (17.8 C)
Relative Humidity: 78%
Pressure (altimeter): 30.1 in. Hg (1019 hPa)
ob: KFAY 160453Z 19007KT 10SM CLR 22/18 A3010 RMK AO2 SLP185 T02170178 402940122
cycle: 5

Station Type Date Time Source
KFAY TAF 2019/06/16 06:22 UTC NOAA

TAF KFAY 160520Z 1606/1706 19006KT P6SM SKC
FM161300 22011KT P6SM SKC
FM162200 19010KT P6SM SCT060

Example: see airport list